Observations for NEW YORK JF KENNEDY, NY (JFK)

KJFK 280451Z 33009KT 10SM FEW110 20/11 A3003 RMK AO2 SLP168 T02000106 402500167 
KJFK 280351Z 33006KT 10SM SCT100 22/11 A3001 RMK AO2 SLP163 T02170106   
KJFK 280251Z 29010KT 10SM FEW100 22/09 A3000 RMK AO2 SLP157 T02220094 53013 
KJFK 280151Z 30007KT 10SM FEW055 FEW075 BKN100 BKN130 BKN250 23/09 A2998 RMK AO2 SLP151 T02280089   
KJFK 280051Z 19005KT 10SM FEW055 BKN075 BKN250 21/17 A2997 RMK AO2 SLP147 VIRGA W-NW T02060172  
KJFK 272351Z 21010KT 10SM FEW055 FEW100 BKN250 21/18 A2996 RMK AO2 SLP144 CB DSNT W TCU DSNT S 60000 T02060178 10250 20206 53004
KJFK 272251Z 19011KT 10SM SCT055 SCT075 SCT100 BKN250 22/16 A2994 RMK AO2 RAB26E51 SLP137 CB DSNT NW P0000 T02220161
KJFK 272151Z 19011KT 10SM SCT055 SCT075 SCT250 23/14 A2994 RMK AO2 SLP137 CB DSNT N T02280144   
KJFK 272051Z 17012KT 10SM SCT055 SCT075 SCT110 SCT250 23/17 A2995 RMK AO2 LTG DSNT SE SLP140 CB DSNT N T02280167 56007  
KJFK 271951Z 18011KT 10SM SCT055CB SCT075 SCT120 BKN140 BKN250 23/16 A2996 RMK AO2 LTG DSNT S AND SW SLP143 CB N MOV E CB DSNT S TCU DSNT NW VCSH N T02330161   
KJFK 271851Z 19009KT 10SM SCT043 SCT130 SCT250 24/16 A2994 RMK AO2 SLP140 VCSH W T02390156  
KJFK 271751Z 20008KT 10SM FEW043 FEW150 SCT250 24/15 A2997 RMK AO2 SLP147 CB DSNT SW T02390150 10239 20183 58016
KJFK 271651Z 21007KT 10SM FEW040 FEW150 BKN200 23/14 A2999 RMK AO2 SLP156 T02280139 
KJFK 271551Z COR 24008KT 10SM FEW037 SCT150 BKN190 22/15 A3000 RMK AO2 SLP160 T02170150 
KJFK 271551Z 24008KT 10SM FEW037 SCT150 BKN190 22/15 A3000 RMK AO2 SLP160 T02170150
KJFK 271451Z 20008KT 10SM FEW050 FEW110 BKN150 BKN250 21/17 A3001 RMK AO2 SLP163 T02060172 56001
KJFK 271351Z 26005KT 10SM FEW045 SCT075 BKN100 BKN220 22/16 A3001 RMK AO2 SLP163 T02170161  
KJFK 271251Z 03003KT 10SM FEW043 SCT120 SCT220 21/17 A3001 RMK AO2 SLP160 T02060167 
KJFK 271151Z 02004KT 10SM FEW047 BKN120 BKN220 18/16 A3002 RMK SLP164 60011 70011 T01830161 10217 20167 51003   
KJFK 271051Z 06007KT 10SM FEW027 BKN075 BKN100 17/16 A3000 RMK RAE50 SLP160 VCSH NE-SE P0009 T01670156  
KJFK 270951Z COR 34007KT 7SM RA OVC070 17/14 A3004 RMK RAB07 SLP173 P0002 T01720144 
KJFK 270851Z 0000KT 10SM BKN085 BKN120 BKN210 19/12 A3001 RMK SLP161 T01940117 53008
KJFK 270751Z 02008KT 10SM BKN085 BKN120 BKN220 19/11 A2999 RMK SLP154 T01940106 
KJFK 270651Z 33013KT 10SM SCT100 BKN120 BKN240 22/11 A2999 RMK SLP155 T02170106 
KJFK 270551Z 22006KT 10SM BKN110 19/14 A2998 RMK AO2 SLP153 T01940139 10217 20194 58004 
KJFK 270451Z 20007KT 10SM FEW100 20/13 A2999 RMK AO2 SLP156 T02000133 402560178